Time;durP1;ratioP1;P1;durP2;ratioP2;P2;SDS_P1;SDS_P2;PMS_P1;PMS_P2;Temp;Humidity;BMP_temperature;BMP_pressure;BME280_temperature;BME280_humidity;BME280_pressure;Samples;Min_cycle;Max_cycle;Signal;HPM_P1;HPM_P2
2021/06/14 00:00:17;;;;;;;2.22;1.45;;;25.60;35.20;;;;;;5093209;28;20032;-60
2021/06/14 00:02:44;;;;;;;3.17;1.30;;;25.60;35.30;;;;;;5095340;28;20028;-62
2021/06/14 00:05:27;;;;;;;2.10;1.55;;;25.60;35.30;;;;;;5094604;28;20039;-63
2021/06/14 00:07:53;;;;;;;1.40;1.15;;;25.60;35.30;;;;;;5094962;28;20024;-61
2021/06/14 00:10:19;;;;;;;2.72;1.23;;;25.50;35.30;;;;;;5094701;28;20462;-59
2021/06/14 00:12:46;;;;;;;1.48;1.30;;;25.50;35.30;;;;;;5094699;28;20032;-59
2021/06/14 00:15:12;;;;;;;1.95;1.42;;;25.60;35.40;;;;;;5093730;28;20447;-60
2021/06/14 00:17:38;;;;;;;1.90;1.38;;;25.50;35.40;;;;;;5094533;28;20043;-61
2021/06/14 00:20:07;;;;;;;2.38;1.45;;;25.50;35.40;;;;;;5093180;28;20039;-60
2021/06/14 00:22:33;;;;;;;1.88;1.38;;;25.50;35.40;;;;;;5095713;28;20030;-61
2021/06/14 00:24:59;;;;;;;3.08;1.67;;;25.40;35.40;;;;;;5091675;28;20028;-61
2021/06/14 00:27:25;;;;;;;2.28;1.40;;;25.40;35.40;;;;;;5094886;28;20056;-60
2021/06/14 00:29:50;;;;;;;2.25;1.50;;;25.40;35.40;;;;;;5092574;28;20066;-60
2021/06/14 00:32:16;;;;;;;2.47;1.65;;;25.40;35.40;;;;;;5090571;28;20523;-61
2021/06/14 00:34:42;;;;;;;2.78;1.50;;;25.40;35.50;;;;;;5093933;28;20331;-60
2021/06/14 00:37:08;;;;;;;2.60;1.42;;;25.40;35.50;;;;;;5094132;28;20473;-61
2021/06/14 00:39:33;;;;;;;2.58;1.40;;;25.40;35.50;;;;;;5092781;28;20024;-60
2021/06/14 00:41:59;;;;;;;2.35;1.80;;;25.40;35.50;;;;;;5094015;28;20035;-61
2021/06/14 00:44:25;;;;;;;2.05;1.20;;;25.40;35.60;;;;;;5091728;28;20463;-60
2021/06/14 00:46:52;;;;;;;1.98;1.55;;;25.40;35.60;;;;;;5092445;28;20032;-62
2021/06/14 00:49:18;;;;;;;2.40;1.40;;;25.40;35.60;;;;;;5093183;28;20110;-59
2021/06/14 00:51:44;;;;;;;1.73;1.35;;;25.40;35.60;;;;;;5094348;28;20358;-61
2021/06/14 00:54:11;;;;;;;1.65;1.33;;;25.40;35.60;;;;;;5076984;28;20024;-62
2021/06/14 00:56:37;;;;;;;1.75;1.23;;;25.40;35.70;;;;;;5093540;28;20039;-60
2021/06/14 00:59:03;;;;;;;1.92;1.42;;;25.30;35.70;;;;;;5092244;28;20043;-60
2021/06/14 01:01:30;;;;;;;2.08;1.50;;;25.30;35.70;;;;;;5090951;28;20409;-60
2021/06/14 01:04:00;;;;;;;2.33;1.40;;;25.30;35.80;;;;;;5093006;28;20068;-61
2021/06/14 01:06:25;;;;;;;2.33;1.40;;;25.30;35.80;;;;;;5088639;28;20020;-60
2021/06/14 01:08:52;;;;;;;1.65;1.08;;;25.30;35.80;;;;;;5091859;28;20354;-61
2021/06/14 01:11:45;;;;;;;2.60;1.20;;;25.30;35.90;;;;;;5092646;28;20028;-62
2021/06/14 01:14:18;;;;;;;1.70;1.25;;;25.30;35.90;;;;;;5094585;28;20421;-60
2021/06/14 01:16:59;;;;;;;1.50;1.05;;;25.30;35.90;;;;;;5091004;28;20087;-61
2021/06/14 01:20:02;;;;;;;2.17;1.27;;;25.30;36.00;;;;;;5083297;28;20020;-61
2021/06/14 01:22:41;;;;;;;1.80;1.33;;;25.30;36.00;;;;;;5093308;28;20035;-59
2021/06/14 01:25:12;;;;;;;2.05;1.40;;;25.20;36.00;;;;;;5092089;28;20040;-60
2021/06/14 01:27:57;;;;;;;3.03;1.60;;;25.20;36.00;;;;;;5094428;28;20028;-63
2021/06/14 01:30:30;;;;;;;1.70;1.20;;;25.20;36.00;;;;;;5092326;28;20012;-61
2021/06/14 01:32:59;;;;;;;1.35;1.23;;;25.30;36.10;;;;;;5089351;28;20035;-62
2021/06/14 01:35:40;;;;;;;1.77;1.40;;;25.20;36.20;;;;;;5092493;28;20040;-60
2021/06/14 01:38:09;;;;;;;1.52;1.23;;;25.20;36.20;;;;;;5092779;28;20122;-61
2021/06/14 01:40:37;;;;;;;1.80;1.27;;;25.20;36.20;;;;;;5091440;28;20078;-60
2021/06/14 01:43:09;;;;;;;1.75;1.20;;;25.20;36.30;;;;;;5091779;28;20035;-61
2021/06/14 01:45:43;;;;;;;2.25;1.38;;;25.20;36.30;;;;;;5091208;28;20028;-60
2021/06/14 01:48:10;;;;;;;2.17;1.25;;;25.20;36.30;;;;;;5092955;28;20039;-60
2021/06/14 01:50:41;;;;;;;1.52;1.30;;;25.20;36.30;;;;;;5092388;28;20024;-61
2021/06/14 01:53:08;;;;;;;2.20;1.40;;;25.20;36.40;;;;;;5093005;28;20044;-61
2021/06/14 01:55:36;;;;;;;2.40;1.33;;;25.10;36.40;;;;;;5089622;28;20059;-62
2021/06/14 01:58:07;;;;;;;2.05;1.40;;;25.10;36.40;;;;;;5090528;28;20539;-60
2021/06/14 02:00:40;;;;;;;1.90;1.30;;;25.10;36.40;;;;;;5089828;28;20024;-61
2021/06/14 02:03:33;;;;;;;1.88;1.35;;;25.10;36.40;;;;;;5091245;28;20035;-61
2021/06/14 02:06:09;;;;;;;1.95;1.13;;;25.10;36.50;;;;;;5091912;28;20406;-61
2021/06/14 02:08:36;;;;;;;1.40;1.13;;;25.10;36.50;;;;;;5090980;28;20024;-61
2021/06/14 02:11:02;;;;;;;2.67;1.60;;;25.10;36.50;;;;;;5092544;28;20578;-60
2021/06/14 02:13:30;;;;;;;2.83;1.73;;;25.10;36.60;;;;;;5089658;28;20071;-59
2021/06/14 02:15:58;;;;;;;1.45;1.33;;;25.10;36.60;;;;;;5088790;28;20470;-59
2021/06/14 02:18:24;;;;;;;1.25;1.00;;;25.00;36.60;;;;;;5091839;28;20052;-58
2021/06/14 02:20:56;;;;;;;2.35;1.58;;;25.00;36.60;;;;;;5091134;28;20097;-62
2021/06/14 02:23:23;;;;;;;2.20;1.55;;;25.10;37.40;;;;;;5091298;28;20035;-60
2021/06/14 02:25:49;;;;;;;2.25;1.30;;;25.00;36.70;;;;;;5092102;28;20028;-59
2021/06/14 02:28:16;;;;;;;2.05;1.40;;;25.10;36.80;;;;;;5090698;28;20118;-60
2021/06/14 02:30:41;;;;;;;1.73;1.30;;;25.10;36.80;;;;;;5090936;28;20151;-60
2021/06/14 02:33:08;;;;;;;2.33;1.58;;;25.00;36.80;;;;;;5091594;28;20036;-61
2021/06/14 02:35:37;;;;;;;2.38;1.48;;;25.00;36.80;;;;;;5089033;28;20032;-61
2021/06/14 02:38:06;;;;;;;2.70;1.27;;;25.00;36.80;;;;;;5090825;28;20042;-61
2021/06/14 02:40:33;;;;;;;1.75;1.20;;;25.00;36.80;;;;;;5091604;28;20044;-61
2021/06/14 02:43:04;;;;;;;2.28;1.38;;;25.00;36.80;;;;;;5091969;28;20044;-58
2021/06/14 02:45:31;;;;;;;3.15;1.60;;;25.00;36.90;;;;;;5087869;28;20055;-60
2021/06/14 02:48:07;;;;;;;2.08;1.63;;;25.00;36.90;;;;;;5091507;28;20060;-62
2021/06/14 02:50:36;;;;;;;2.13;1.25;;;25.00;36.90;;;;;;5088958;28;20077;-62
2021/06/14 02:53:08;;;;;;;3.00;1.40;;;25.00;36.90;;;;;;5092888;28;20079;-58
2021/06/14 02:55:44;;;;;;;2.47;1.75;;;25.00;37.00;;;;;;5091211;28;20077;-61
2021/06/14 02:58:11;;;;;;;2.35;1.40;;;25.00;37.00;;;;;;5086139;28;20051;-61
2021/06/14 03:00:37;;;;;;;1.73;1.23;;;24.90;37.00;;;;;;5091372;28;20058;-63
2021/06/14 03:03:07;;;;;;;1.90;1.48;;;24.90;37.00;;;;;;5089706;28;20081;-61
2021/06/14 03:05:35;;;;;;;1.83;1.45;;;24.90;37.00;;;;;;5091241;28;20020;-60
2021/06/14 03:08:03;;;;;;;1.75;1.30;;;24.90;37.10;;;;;;5090195;28;20136;-61
2021/06/14 03:10:32;;;;;;;3.53;1.80;;;24.90;37.10;;;;;;5090841;28;20028;-60
2021/06/14 03:13:01;;;;;;;2.05;1.65;;;24.90;37.10;;;;;;5089408;28;20044;-60
2021/06/14 03:15:28;;;;;;;1.88;1.33;;;24.90;37.10;;;;;;5090502;28;20024;-62
2021/06/14 03:17:55;;;;;;;2.60;1.63;;;24.90;37.20;;;;;;5088952;28;20428;-60
2021/06/14 03:20:25;;;;;;;2.95;2.00;;;24.90;37.20;;;;;;5089746;28;20119;-60
2021/06/14 03:22:53;;;;;;;1.95;1.45;;;24.90;37.30;;;;;;5089834;28;20039;-61
2021/06/14 03:25:19;;;;;;;2.47;1.50;;;24.90;37.30;;;;;;5085127;28;20035;-61
2021/06/14 03:27:46;;;;;;;3.20;1.80;;;24.80;37.20;;;;;;5090287;28;20067;-59
2021/06/14 03:30:14;;;;;;;2.25;1.48;;;24.90;37.30;;;;;;5090201;28;20382;-60
2021/06/14 03:32:42;;;;;;;2.78;1.70;;;24.80;37.30;;;;;;5091453;28;20424;-59
2021/06/14 03:35:13;;;;;;;2.03;1.60;;;24.80;37.40;;;;;;5089027;28;20059;-61
2021/06/14 03:37:40;;;;;;;2.33;1.60;;;24.80;37.40;;;;;;5090999;28;20024;-61
2021/06/14 03:40:06;;;;;;;1.58;1.33;;;24.80;37.40;;;;;;5092497;28;20325;-59
2021/06/14 03:42:32;;;;;;;2.70;1.92;;;24.80;37.50;;;;;;5091450;28;20035;-60
2021/06/14 03:44:58;;;;;;;3.42;1.83;;;24.80;37.50;;;;;;5091633;28;20027;-62
2021/06/14 03:47:25;;;;;;;2.08;1.52;;;24.80;37.50;;;;;;5093426;28;20134;-60
2021/06/14 03:49:51;;;;;;;2.45;1.60;;;24.80;37.50;;;;;;5095586;28;20028;-60
2021/06/14 03:52:17;;;;;;;2.53;1.80;;;24.80;37.50;;;;;;5094019;28;20289;-62
2021/06/14 03:54:43;;;;;;;3.03;1.85;;;24.80;37.50;;;;;;5095467;28;20466;-60
2021/06/14 03:57:09;;;;;;;2.53;1.70;;;24.80;37.60;;;;;;5094191;28;20042;-58
2021/06/14 03:59:34;;;;;;;2.15;1.60;;;24.80;37.60;;;;;;5095164;28;20121;-61
2021/06/14 04:02:00;;;;;;;1.80;1.42;;;24.80;37.60;;;;;;5094510;28;20024;-60
2021/06/14 04:04:49;;;;;;;2.88;1.90;;;24.90;37.70;;;;;;5094390;28;20035;-60
2021/06/14 04:07:33;;;;;;;2.35;1.50;;;24.80;37.70;;;;;;5108080;28;20024;-60
2021/06/14 04:09:59;;;;;;;2.63;1.50;;;24.80;37.70;;;;;;5094728;28;20054;-61
2021/06/14 04:12:28;;;;;;;3.25;1.50;;;24.80;37.80;;;;;;5090573;28;20036;-60
2021/06/14 04:14:54;;;;;;;3.35;1.90;;;24.80;37.80;;;;;;5093465;28;20320;-60
2021/06/14 04:17:20;;;;;;;2.10;1.50;;;24.80;37.90;;;;;;5092154;28;20047;-61
2021/06/14 04:19:45;;;;;;;2.33;1.77;;;24.80;37.90;;;;;;5092460;28;20024;-61
2021/06/14 04:22:11;;;;;;;3.17;1.80;;;24.80;37.90;;;;;;5094517;28;20101;-61
2021/06/14 04:24:37;;;;;;;3.53;1.88;;;24.80;37.90;;;;;;5092387;28;20020;-60
2021/06/14 04:27:04;;;;;;;2.35;1.95;;;24.80;38.00;;;;;;5095011;28;20440;-60
2021/06/14 04:29:30;;;;;;;1.60;1.50;;;24.80;38.10;;;;;;5093315;28;20089;-61
2021/06/14 04:31:57;;;;;;;2.55;1.95;;;24.80;38.10;;;;;;5094304;28;20024;-60
2021/06/14 04:34:23;;;;;;;3.20;1.88;;;24.80;38.10;;;;;;5089973;28;20036;-61
2021/06/14 04:36:48;;;;;;;3.15;1.73;;;24.80;38.10;;;;;;5094653;28;20031;-60
2021/06/14 04:39:14;;;;;;;3.78;2.08;;;24.80;38.10;;;;;;5094157;28;20036;-59
2021/06/14 04:41:40;;;;;;;2.83;1.80;;;24.80;38.20;;;;;;5094268;28;20020;-61
2021/06/14 04:44:06;;;;;;;2.97;1.92;;;24.80;38.20;;;;;;5094213;28;20085;-58
2021/06/14 04:46:32;;;;;;;2.15;1.67;;;24.80;38.20;;;;;;5093220;28;20028;-60
2021/06/14 04:48:58;;;;;;;2.90;1.80;;;24.80;38.30;;;;;;5093758;28;20085;-61
2021/06/14 04:51:24;;;;;;;2.40;1.90;;;24.80;38.30;;;;;;5093034;28;20031;-62
2021/06/14 04:53:50;;;;;;;2.53;1.67;;;24.80;38.40;;;;;;5094876;28;20042;-60
2021/06/14 04:56:16;;;;;;;3.08;1.85;;;24.80;38.40;;;;;;5093488;28;20032;-61
2021/06/14 04:58:43;;;;;;;2.33;1.88;;;24.80;38.40;;;;;;5092846;28;20020;-61
2021/06/14 05:01:09;;;;;;;2.42;1.70;;;24.80;38.50;;;;;;5093444;28;20111;-61
2021/06/14 05:03:35;;;;;;;2.85;1.90;;;24.80;38.50;;;;;;5093891;28;20229;-61
2021/06/14 05:06:01;;;;;;;2.47;1.90;;;24.80;38.50;;;;;;5093590;28;20035;-61
2021/06/14 05:08:27;;;;;;;2.40;1.73;;;24.80;38.50;;;;;;5094504;28;20028;-59
2021/06/14 05:10:53;;;;;;;2.78;1.90;;;24.80;38.50;;;;;;5092770;28;20055;-61
2021/06/14 05:13:18;;;;;;;3.97;2.10;;;24.80;39.10;;;;;;5094053;28;20068;-60
2021/06/14 05:15:44;;;;;;;3.22;2.13;;;24.80;38.40;;;;;;5092583;28;20023;-60
2021/06/14 05:18:10;;;;;;;3.67;2.42;;;24.80;38.40;;;;;;5092108;28;20054;-59
2021/06/14 05:20:36;;;;;;;2.88;2.05;;;24.80;38.40;;;;;;5092714;28;20032;-59
2021/06/14 05:23:03;;;;;;;3.22;2.47;;;24.80;38.40;;;;;;5091037;28;20046;-58
2021/06/14 05:25:31;;;;;;;2.58;1.88;;;24.80;38.30;;;;;;5092754;28;20031;-61
2021/06/14 05:27:57;;;;;;;2.88;1.77;;;24.80;38.30;;;;;;5093449;28;20035;-61
2021/06/14 05:30:23;;;;;;;3.28;2.10;;;24.80;38.20;;;;;;5092315;28;20047;-61
2021/06/14 05:32:49;;;;;;;3.05;1.80;;;24.80;38.20;;;;;;5093175;28;20044;-59
2021/06/14 05:35:15;;;;;;;3.53;2.22;;;24.80;38.20;;;;;;5089519;28;20043;-59
2021/06/14 05:37:41;;;;;;;3.38;1.85;;;24.80;38.10;;;;;;5093964;28;20047;-60
2021/06/14 05:40:09;;;;;;;3.05;1.90;;;24.80;38.10;;;;;;5091793;28;20020;-60
2021/06/14 05:42:35;;;;;;;4.22;1.90;;;24.80;38.00;;;;;;5093700;28;20052;-59
2021/06/14 05:45:04;;;;;;;2.55;1.90;;;24.80;38.00;;;;;;5092524;28;20115;-60
2021/06/14 05:47:30;;;;;;;2.95;1.77;;;24.80;37.90;;;;;;5093022;28;20027;-60
2021/06/14 05:49:55;;;;;;;2.10;1.70;;;24.80;37.80;;;;;;5090798;28;20020;-59
2021/06/14 05:52:21;;;;;;;2.40;1.80;;;24.80;37.80;;;;;;5091508;28;20108;-59
2021/06/14 05:54:47;;;;;;;4.72;2.28;;;24.80;37.70;;;;;;5092125;28;20075;-59
2021/06/14 05:57:13;;;;;;;3.97;2.10;;;24.80;37.70;;;;;;5090146;28;20025;-61
2021/06/14 05:59:39;;;;;;;4.95;2.25;;;24.80;37.60;;;;;;5090997;28;20032;-60
2021/06/14 06:02:06;;;;;;;3.15;1.48;;;24.80;37.50;;;;;;5091800;28;20064;-58
2021/06/14 06:04:32;;;;;;;2.45;1.80;;;24.80;37.50;;;;;;5089023;28;20081;-60
2021/06/14 06:06:59;;;;;;;5.07;2.08;;;24.80;37.50;;;;;;5092928;28;20028;-59
2021/06/14 06:09:24;;;;;;;3.15;1.90;;;24.80;37.50;;;;;;5090846;28;20016;-59
2021/06/14 06:11:50;;;;;;;2.90;1.80;;;24.80;37.50;;;;;;5092404;28;20096;-61
2021/06/14 06:14:16;;;;;;;2.90;1.90;;;24.80;37.60;;;;;;5092952;28;20024;-60
2021/06/14 06:16:43;;;;;;;2.95;1.70;;;24.80;37.60;;;;;;5092489;28;20039;-62
2021/06/14 06:19:09;;;;;;;2.85;1.98;;;24.80;37.60;;;;;;5091624;28;20044;-61
2021/06/14 06:21:35;;;;;;;4.30;1.98;;;24.80;38.20;;;;;;5092887;28;20024;-59
2021/06/14 06:24:02;;;;;;;2.75;1.95;;;24.80;37.70;;;;;;5085904;28;20221;-59
2021/06/14 06:26:27;;;;;;;2.55;1.70;;;24.80;37.70;;;;;;5091887;28;20389;-53
2021/06/14 06:28:54;;;;;;;2.05;1.60;;;24.80;37.70;;;;;;5089863;28;20039;-57
2021/06/14 06:31:20;;;;;;;3.22;1.75;;;24.80;38.40;;;;;;5092286;28;20111;-57
2021/06/14 06:33:45;;;;;;;2.47;1.80;;;24.80;37.70;;;;;;5090509;28;20515;-60
2021/06/14 06:36:11;;;;;;;2.97;1.77;;;24.90;37.80;;;;;;5091571;28;20032;-61
2021/06/14 06:38:37;;;;;;;3.47;1.85;;;24.90;37.80;;;;;;5091536;28;20016;-63
2021/06/14 06:41:05;;;;;;;2.65;2.05;;;24.90;37.80;;;;;;5086665;28;20100;-60
2021/06/14 06:43:31;;;;;;;2.83;1.92;;;24.90;37.90;;;;;;5086439;28;20427;-59
2021/06/14 06:45:57;;;;;;;2.80;1.70;;;25.00;37.90;;;;;;5085078;28;20191;-63
2021/06/14 06:48:23;;;;;;;2.95;1.80;;;25.00;37.90;;;;;;5088904;28;20507;-61
2021/06/14 06:50:49;;;;;;;3.03;1.90;;;25.00;37.90;;;;;;5091942;28;20119;-61
2021/06/14 06:53:15;;;;;;;3.25;1.90;;;25.00;38.00;;;;;;5091612;28;20040;-60
2021/06/14 06:55:40;;;;;;;3.70;2.17;;;25.00;38.00;;;;;;5091126;28;20457;-62
2021/06/14 06:58:06;;;;;;;3.17;1.80;;;25.00;38.10;;;;;;5090962;28;20097;-62
2021/06/14 07:00:32;;;;;;;2.97;1.95;;;25.10;38.20;;;;;;5091485;28;20024;-63
2021/06/14 07:03:00;;;;;;;2.80;1.83;;;25.00;38.10;;;;;;5092433;28;20103;-62
2021/06/14 07:05:26;;;;;;;2.42;1.70;;;25.10;38.20;;;;;;5092201;28;20729;-63
2021/06/14 07:07:51;;;;;;;3.88;1.70;;;25.10;38.20;;;;;;5089577;28;20059;-62
2021/06/14 07:10:17;;;;;;;3.25;1.77;;;25.10;38.20;;;;;;5085984;28;20038;-61
2021/06/14 07:12:44;;;;;;;2.92;1.80;;;25.10;38.20;;;;;;5084870;28;20036;-61
2021/06/14 07:15:11;;;;;;;3.28;1.80;;;25.10;38.20;;;;;;5082012;28;20028;-64
2021/06/14 07:17:44;;;;;;;5.82;2.10;;;25.10;38.20;;;;;;5088778;28;20040;-62
2021/06/14 07:20:12;;;;;;;3.97;2.08;;;25.10;38.20;;;;;;5086669;28;20084;-62
2021/06/14 07:22:39;;;;;;;3.20;2.15;;;25.20;38.30;;;;;;5083496;28;20024;-61
2021/06/14 07:25:08;;;;;;;4.25;1.70;;;25.20;38.30;;;;;;5087679;28;20067;-62
2021/06/14 07:27:34;;;;;;;3.50;1.90;;;25.20;38.20;;;;;;5071822;28;20056;-62
2021/06/14 07:30:01;;;;;;;4.00;2.10;;;25.20;38.30;;;;;;5087964;28;20085;-62
2021/06/14 07:32:27;;;;;;;2.60;1.63;;;25.20;38.30;;;;;;5092870;28;20039;-62
2021/06/14 07:34:52;;;;;;;2.65;1.92;;;25.30;38.30;;;;;;5089692;28;20028;-63
2021/06/14 07:37:18;;;;;;;2.97;1.73;;;25.30;38.30;;;;;;5089176;28;20081;-60
2021/06/14 07:39:45;;;;;;;2.75;1.52;;;25.30;38.30;;;;;;5087091;28;20352;-59
2021/06/14 07:42:12;;;;;;;3.72;1.60;;;25.30;38.30;;;;;;5088000;28;20477;-60
2021/06/14 07:44:38;;;;;;;2.38;1.92;;;25.30;38.30;;;;;;5089871;28;20024;-61
2021/06/14 07:47:07;;;;;;;3.20;2.17;;;25.30;38.30;;;;;;5093391;28;20292;-61
2021/06/14 07:49:35;;;;;;;2.67;1.98;;;25.30;38.30;;;;;;5093586;28;20035;-61
2021/06/14 07:52:04;;;;;;;3.17;1.70;;;25.30;38.30;;;;;;5071039;28;20036;-61
2021/06/14 07:54:31;;;;;;;3.08;1.70;;;25.30;38.30;;;;;;5083850;28;20024;-62
2021/06/14 07:56:57;;;;;;;2.40;1.65;;;25.30;38.30;;;;;;5088267;28;20597;-61
2021/06/14 07:59:23;;;;;;;3.72;1.85;;;25.30;38.30;;;;;;5085743;28;20028;-61
2021/06/14 08:01:48;;;;;;;2.58;1.77;;;25.30;38.30;;;;;;5087596;28;20100;-61
2021/06/14 08:04:14;;;;;;;2.55;1.75;;;25.30;38.30;;;;;;5091735;28;20080;-62
2021/06/14 08:06:40;;;;;;;3.70;1.75;;;25.30;38.40;;;;;;5087149;28;20115;-61
2021/06/14 08:09:12;;;;;;;2.15;1.58;;;25.30;38.40;;;;;;5086667;28;20059;-61
2021/06/14 08:11:38;;;;;;;3.20;1.77;;;25.30;38.40;;;;;;5088823;28;20121;-60
2021/06/14 08:14:05;;;;;;;2.25;1.75;;;25.40;38.40;;;;;;5092420;28;20121;-59
2021/06/14 08:16:38;;;;;;;1.65;1.38;;;25.40;38.40;;;;;;5082762;28;20265;-62
2021/06/14 08:19:09;;;;;;;2.40;1.60;;;25.40;38.40;;;;;;5089094;28;20439;-62
2021/06/14 08:27:09;;;;;;;2.47;1.52;;;25.50;38.50;;;;;;5087781;28;20024;-62
2021/06/14 08:29:34;;;;;;;1.70;1.40;;;25.50;38.40;;;;;;5084617;28;20067;-60
2021/06/14 08:32:00;;;;;;;1.85;1.30;;;25.50;38.40;;;;;;5089164;28;20376;-61
2021/06/14 08:34:26;;;;;;;2.25;1.60;;;25.50;38.40;;;;;;5090930;28;20089;-58
2021/06/14 08:36:52;;;;;;;2.47;1.48;;;25.50;38.40;;;;;;5089626;28;20041;-56
2021/06/14 08:39:18;;;;;;;1.92;1.38;;;25.50;38.40;;;;;;5086237;28;20020;-57
2021/06/14 08:41:45;;;;;;;3.92;1.77;;;25.60;38.50;;;;;;5094773;28;20027;-59
2021/06/14 08:44:12;;;;;;;2.75;1.80;;;25.60;38.50;;;;;;5093860;28;20088;-60
2021/06/14 08:46:39;;;;;;;2.20;1.48;;;25.60;38.50;;;;;;5093827;28;20039;-54
2021/06/14 08:49:06;;;;;;;2.30;1.55;;;25.60;38.50;;;;;;5093692;28;20028;-59
2021/06/14 08:51:32;;;;;;;2.85;1.70;;;25.70;38.50;;;;;;5094591;28;20092;-56
2021/06/14 08:54:05;;;;;;;3.58;2.10;;;25.70;38.50;;;;;;5093935;28;20032;-55
2021/06/14 08:56:32;;;;;;;2.33;1.50;;;25.70;38.40;;;;;;5089342;28;20046;-58
2021/06/14 08:58:58;;;;;;;4.53;1.70;;;25.70;38.40;;;;;;5090614;28;20360;-57
2021/06/14 09:01:25;;;;;;;2.80;1.73;;;25.70;38.30;;;;;;5091474;28;20036;-56
2021/06/14 09:03:51;;;;;;;2.70;1.63;;;25.80;38.30;;;;;;5087863;28;20356;-59
2021/06/14 09:06:17;;;;;;;3.00;1.70;;;25.80;38.20;;;;;;5091867;28;20482;-56
2021/06/14 09:08:56;;;;;;;1.90;1.65;;;25.80;38.10;;;;;;5092192;28;20401;-58
2021/06/14 09:11:21;;;;;;;3.00;1.77;;;25.90;38.10;;;;;;5093566;28;20059;-60
2021/06/14 09:13:47;;;;;;;2.75;1.70;;;25.80;37.90;;;;;;5093336;28;20128;-57
2021/06/14 09:16:15;;;;;;;2.65;1.67;;;25.90;37.90;;;;;;5093337;28;20085;-57
2021/06/14 09:18:43;;;;;;;1.90;1.20;;;25.90;37.80;;;;;;5091610;28;20072;-61
2021/06/14 09:21:09;;;;;;;2.60;1.50;;;25.90;37.80;;;;;;5089669;28;20109;-54
2021/06/14 09:23:46;;;;;;;2.33;1.50;;;25.90;37.70;;;;;;5092237;28;20052;-60
2021/06/14 09:26:23;;;;;;;2.63;1.70;;;25.90;37.60;;;;;;5093390;28;20040;-58
2021/06/14 09:28:50;;;;;;;2.40;1.45;;;25.90;37.60;;;;;;5092750;28;20522;-58
2021/06/14 09:31:16;;;;;;;1.95;1.60;;;25.90;37.60;;;;;;5093384;28;20024;-60
2021/06/14 09:33:47;;;;;;;2.60;1.70;;;25.90;37.50;;;;;;5093181;28;20055;-60
2021/06/14 09:36:14;;;;;;;3.10;1.70;;;25.90;37.50;;;;;;5093424;28;20451;-59
2021/06/14 09:38:40;;;;;;;2.80;1.60;;;25.90;37.50;;;;;;5093579;28;20024;-55
2021/06/14 09:41:17;;;;;;;2.65;1.70;;;26.00;37.50;;;;;;5094219;28;20039;-60
2021/06/14 09:43:47;;;;;;;2.30;1.58;;;26.00;37.50;;;;;;5090511;28;20020;-59
2021/06/14 09:46:32;;;;;;;2.92;1.80;;;25.90;37.40;;;;;;5093255;28;20032;-61
2021/06/14 09:49:00;;;;;;;2.03;1.40;;;26.00;37.40;;;;;;5090272;28;20093;-59
2021/06/14 09:51:28;;;;;;;2.53;1.58;;;25.90;37.30;;;;;;5093052;28;20059;-61
2021/06/14 09:53:55;;;;;;;2.33;1.55;;;25.90;37.20;;;;;;5092147;28;20035;-61
2021/06/14 09:56:35;;;;;;;2.75;1.30;;;26.00;37.20;;;;;;5093202;28;20066;-60
2021/06/14 09:59:02;;;;;;;2.28;1.55;;;26.00;37.10;;;;;;5091590;28;20058;-60
2021/06/14 10:01:29;;;;;;;2.85;1.67;;;26.00;37.10;;;;;;5091040;28;20471;-58
2021/06/14 10:03:58;;;;;;;3.80;2.03;;;26.00;37.00;;;;;;5089825;28;20426;-62
2021/06/14 10:06:35;;;;;;;2.30;1.50;;;26.00;36.90;;;;;;5091663;28;21616;-59
2021/06/14 10:09:03;;;;;;;2.22;1.52;;;26.00;36.80;;;;;;5089699;28;20043;-58
2021/06/14 10:11:35;;;;;;;2.20;1.40;;;26.00;36.80;;;;;;5088558;28;20328;-58
2021/06/14 10:14:14;;;;;;;2.53;1.50;;;26.00;36.80;;;;;;5091674;28;20083;-61
2021/06/14 10:16:41;;;;;;;2.10;1.55;;;26.00;36.70;;;;;;5091772;28;20031;-58
2021/06/14 10:19:09;;;;;;;1.73;1.30;;;26.00;37.30;;;;;;5087981;28;20056;-61
2021/06/14 10:21:41;;;;;;;1.67;1.15;;;26.00;36.60;;;;;;5088056;28;20032;-63
2021/06/14 10:24:10;;;;;;;2.70;1.77;;;26.10;36.70;;;;;;5088972;28;20032;-58
2021/06/14 10:26:38;;;;;;;3.15;1.80;;;26.00;36.50;;;;;;5089655;28;20047;-62
2021/06/14 10:29:06;;;;;;;3.03;1.70;;;26.00;36.50;;;;;;5088682;28;20032;-59
2021/06/14 10:31:34;;;;;;;1.92;1.65;;;26.00;36.50;;;;;;5083839;28;20046;-55
2021/06/14 10:34:01;;;;;;;2.75;1.85;;;26.10;36.50;;;;;;5083583;28;20048;-59
2021/06/14 10:36:28;;;;;;;2.63;1.88;;;26.10;36.50;;;;;;5087085;28;20039;-59
2021/06/14 10:38:55;;;;;;;2.08;1.40;;;26.10;36.40;;;;;;5084205;28;20351;-57
2021/06/14 10:41:22;;;;;;;2.45;1.83;;;26.20;36.50;;;;;;5088845;28;20031;-57
2021/06/14 10:43:50;;;;;;;1.77;1.50;;;26.20;36.70;;;;;;5083266;28;20169;-60
2021/06/14 10:46:19;;;;;;;3.08;1.75;;;26.20;36.70;;;;;;5084327;28;20028;-57
2021/06/14 10:48:46;;;;;;;2.83;1.85;;;26.30;36.80;;;;;;5083038;28;20416;-60
2021/06/14 10:51:13;;;;;;;2.05;1.38;;;26.30;36.80;;;;;;5084819;28;20428;-57
2021/06/14 10:53:39;;;;;;;2.30;1.70;;;26.30;36.70;;;;;;5085659;28;20477;-57
2021/06/14 10:56:05;;;;;;;2.20;1.40;;;26.40;36.60;;;;;;5084082;28;20032;-58
2021/06/14 10:58:32;;;;;;;3.13;1.60;;;26.40;36.50;;;;;;5092371;28;20031;-55
2021/06/14 11:01:07;;;;;;;2.88;1.50;;;26.40;36.40;;;;;;5088562;28;20111;-59
2021/06/14 11:03:41;;;;;;;2.70;1.38;;;26.50;36.30;;;;;;5088394;28;20367;-58
2021/06/14 11:06:24;;;;;;;3.85;1.65;;;26.50;36.30;;;;;;5091504;28;20083;-61
2021/06/14 11:09:01;;;;;;;4.05;1.48;;;26.50;36.10;;;;;;5083009;28;20432;-61
2021/06/14 11:11:27;;;;;;;2.67;1.95;;;26.50;36.00;;;;;;5088013;28;20024;-58
2021/06/14 11:13:54;;;;;;;2.03;1.42;;;26.50;35.90;;;;;;5091510;28;20477;-60
2021/06/14 11:16:21;;;;;;;2.30;1.70;;;26.50;35.80;;;;;;5089649;28;20032;-60
2021/06/14 11:18:49;;;;;;;1.73;1.45;;;26.50;35.60;;;;;;5088318;28;20039;-58
2021/06/14 11:21:18;;;;;;;2.47;1.30;;;26.60;35.60;;;;;;5085891;28;20043;-61
2021/06/14 11:23:49;;;;;;;2.38;1.42;;;26.50;35.40;;;;;;5090004;28;20465;-59
2021/06/14 11:26:30;;;;;;;2.10;1.30;;;26.60;35.30;;;;;;5092633;28;20028;-61
2021/06/14 11:28:59;;;;;;;2.80;1.70;;;26.60;35.30;;;;;;5087991;28;20035;-61
2021/06/14 11:31:30;;;;;;;3.03;1.63;;;26.60;35.30;;;;;;5086674;28;20074;-56
2021/06/14 11:34:03;;;;;;;2.83;1.40;;;26.60;35.20;;;;;;5095261;28;20047;-56
2021/06/14 11:36:32;;;;;;;2.03;1.42;;;26.60;35.30;;;;;;5085756;28;20024;-52
2021/06/14 11:39:10;;;;;;;1.65;1.33;;;26.60;35.30;;;;;;5077106;28;20029;-51
2021/06/14 11:41:36;;;;;;;1.83;1.50;;;26.60;35.30;;;;;;5088683;28;20143;-53
2021/06/14 11:44:30;;;;;;;3.15;1.63;;;26.60;35.40;;;;;;5090541;28;20107;-50
2021/06/14 11:47:12;;;;;;;3.97;1.60;;;26.70;35.40;;;;;;5078254;28;20032;-49
2021/06/14 11:49:38;;;;;;;1.58;1.13;;;26.70;35.40;;;;;;5076725;28;20036;-46
2021/06/14 11:52:22;;;;;;;1.90;1.30;;;26.70;35.40;;;;;;5078164;28;20329;-48
2021/06/14 11:54:55;;;;;;;2.30;1.42;;;26.70;35.30;;;;;;5076705;28;20046;-48
2021/06/14 11:57:36;;;;;;;2.50;1.33;;;26.70;35.30;;;;;;5076430;28;20077;-50
2021/06/14 12:00:05;;;;;;;1.20;1.10;;;26.80;35.30;;;;;;5082802;28;20035;-48
2021/06/14 12:02:36;;;;;;;1.98;1.42;;;26.80;35.30;;;;;;5096990;28;20113;-48
2021/06/14 12:05:03;;;;;;;3.90;1.73;;;26.70;35.20;;;;;;5095890;28;20792;-45
2021/06/14 12:07:31;;;;;;;1.88;1.38;;;26.80;35.20;;;;;;5096002;28;20055;-46
2021/06/14 12:10:00;;;;;;;2.33;1.65;;;26.80;35.20;;;;;;5096962;28;20028;-47
2021/06/14 12:12:26;;;;;;;2.13;1.40;;;26.80;35.70;;;;;;5096463;28;20043;-47
2021/06/14 12:14:53;;;;;;;1.88;1.65;;;26.80;35.10;;;;;;5092816;28;20020;-53
2021/06/14 12:17:34;;;;;;;2.90;1.58;;;26.80;35.10;;;;;;5091714;28;20144;-51
2021/06/14 12:20:00;;;;;;;1.88;1.20;;;26.80;35.00;;;;;;5084066;28;20336;-46
2021/06/14 12:22:29;;;;;;;2.40;1.73;;;26.80;35.10;;;;;;5088922;28;20032;-45
2021/06/14 12:25:01;;;;;;;2.40;1.40;;;26.90;35.10;;;;;;5096464;28;20028;-49
2021/06/14 12:27:26;;;;;;;1.70;1.35;;;26.80;35.00;;;;;;5095861;28;20036;-45
2021/06/14 12:30:00;;;;;;;2.53;1.60;;;26.80;35.10;;;;;;5095992;28;20085;-48
2021/06/14 12:32:29;;;;;;;2.92;1.73;;;26.90;35.10;;;;;;5095035;28;20174;-47
2021/06/14 12:34:59;;;;;;;1.55;1.23;;;26.90;35.10;;;;;;5075923;28;20435;-50
2021/06/14 12:37:25;;;;;;;1.95;1.50;;;26.90;35.20;;;;;;5089007;28;20028;-53
2021/06/14 12:39:59;;;;;;;2.60;1.67;;;26.90;35.20;;;;;;5096435;28;20060;-47
2021/06/14 12:42:25;;;;;;;2.17;1.55;;;26.90;35.10;;;;;;5081363;28;20020;-52
2021/06/14 12:45:02;;;;;;;2.72;1.60;;;26.90;35.20;;;;;;5089610;28;20020;-46
2021/06/14 12:47:29;;;;;;;2.55;1.90;;;26.90;35.20;;;;;;5087296;28;20036;-54
2021/06/14 12:49:56;;;;;;;1.90;1.65;;;26.90;35.20;;;;;;5093953;28;20043;-51
2021/06/14 12:52:27;;;;;;;2.80;1.70;;;26.90;35.30;;;;;;5093601;28;20105;-51
2021/06/14 12:54:53;;;;;;;2.28;1.65;;;27.00;35.40;;;;;;5090886;28;20031;-44
2021/06/14 12:57:24;;;;;;;2.47;1.65;;;27.00;35.50;;;;;;5095447;28;20028;-50
2021/06/14 12:59:50;;;;;;;2.72;1.70;;;27.00;35.50;;;;;;5089556;28;20115;-44